sensor_id;sensor_type;location;lat;lon;timestamp;temperature;humidity
65637;DHT22;52327;42.622;23.316;2023-05-10T00:01:20;9.32;88.97
65637;DHT22;52327;42.622;23.316;2023-05-10T00:03:56;9.19;90.00
65637;DHT22;52327;42.622;23.316;2023-05-10T00:06:21;9.19;89.94
65637;DHT22;52327;42.622;23.316;2023-05-10T00:08:58;9.12;90.53
65637;DHT22;52327;42.622;23.316;2023-05-10T00:11:31;9.07;90.33
65637;DHT22;52327;42.622;23.316;2023-05-10T00:13:57;9.04;90.53
65637;DHT22;52327;42.622;23.316;2023-05-10T00:16:33;9.01;90.46
65637;DHT22;52327;42.622;23.316;2023-05-10T00:19:15;8.99;90.69
65637;DHT22;52327;42.622;23.316;2023-05-10T00:21:59;8.95;90.75
65637;DHT22;52327;42.622;23.316;2023-05-10T00:24:27;8.97;90.70
65637;DHT22;52327;42.622;23.316;2023-05-10T00:26:55;9.04;90.81
65637;DHT22;52327;42.622;23.316;2023-05-10T00:29:20;9.09;90.57
65637;DHT22;52327;42.622;23.316;2023-05-10T00:31:46;9.08;90.59
65637;DHT22;52327;42.622;23.316;2023-05-10T00:34:11;9.02;90.20
65637;DHT22;52327;42.622;23.316;2023-05-10T00:36:42;8.99;90.68
65637;DHT22;52327;42.622;23.316;2023-05-10T00:39:08;9.02;90.55
65637;DHT22;52327;42.622;23.316;2023-05-10T00:41:33;8.99;90.41
65637;DHT22;52327;42.622;23.316;2023-05-10T00:43:59;8.98;90.57
65637;DHT22;52327;42.622;23.316;2023-05-10T00:46:26;8.99;90.50
65637;DHT22;52327;42.622;23.316;2023-05-10T00:48:52;8.98;90.40
65637;DHT22;52327;42.622;23.316;2023-05-10T00:51:25;8.97;90.31
65637;DHT22;52327;42.622;23.316;2023-05-10T00:53:51;8.99;90.64
65637;DHT22;52327;42.622;23.316;2023-05-10T00:56:17;8.93;90.47
65637;DHT22;52327;42.622;23.316;2023-05-10T00:58:42;8.89;90.55
65637;DHT22;52327;42.622;23.316;2023-05-10T01:01:11;8.84;90.60
65637;DHT22;52327;42.622;23.316;2023-05-10T01:03:46;8.77;90.62
65637;DHT22;52327;42.622;23.316;2023-05-10T01:06:12;8.75;90.71
65637;DHT22;52327;42.622;23.316;2023-05-10T01:08:38;8.85;90.42
65637;DHT22;52327;42.622;23.316;2023-05-10T01:11:04;8.87;90.50
65637;DHT22;52327;42.622;23.316;2023-05-10T01:13:36;8.79;90.39
65637;DHT22;52327;42.622;23.316;2023-05-10T01:16:08;8.74;90.55
65637;DHT22;52327;42.622;23.316;2023-05-10T01:18:36;8.70;90.57
65637;DHT22;52327;42.622;23.316;2023-05-10T01:21:36;8.74;90.48
65637;DHT22;52327;42.622;23.316;2023-05-10T01:35:26;8.60;90.47
65637;DHT22;52327;42.622;23.316;2023-05-10T01:38:05;8.50;90.44
65637;DHT22;52327;42.622;23.316;2023-05-10T01:43:05;8.50;90.42
65637;DHT22;52327;42.622;23.316;2023-05-10T01:46:00;8.48;90.41
65637;DHT22;52327;42.622;23.316;2023-05-10T01:48:48;8.43;90.06
65637;DHT22;52327;42.622;23.316;2023-05-10T01:51:19;8.33;90.89
65637;DHT22;52327;42.622;23.316;2023-05-10T01:53:47;8.37;90.51
65637;DHT22;52327;42.622;23.316;2023-05-10T01:56:24;8.33;90.61
65637;DHT22;52327;42.622;23.316;2023-05-10T01:58:53;8.26;90.87
65637;DHT22;52327;42.622;23.316;2023-05-10T02:01:26;8.30;90.56
65637;DHT22;52327;42.622;23.316;2023-05-10T02:03:53;8.29;90.48
65637;DHT22;52327;42.622;23.316;2023-05-10T02:06:35;8.26;90.54
65637;DHT22;52327;42.622;23.316;2023-05-10T02:09:09;8.13;90.47
65637;DHT22;52327;42.622;23.316;2023-05-10T02:11:58;8.13;90.69
65637;DHT22;52327;42.622;23.316;2023-05-10T02:14:36;8.00;90.82
65637;DHT22;52327;42.622;23.316;2023-05-10T02:17:34;8.10;90.11
65637;DHT22;52327;42.622;23.316;2023-05-10T02:20:46;7.97;89.83
65637;DHT22;52327;42.622;23.316;2023-05-10T02:26:29;7.95;90.06
65637;DHT22;52327;42.622;23.316;2023-05-10T02:31:57;7.76;90.28
65637;DHT22;52327;42.622;23.316;2023-05-10T02:34:27;7.78;90.08
65637;DHT22;52327;42.622;23.316;2023-05-10T02:36:53;7.79;89.97
65637;DHT22;52327;42.622;23.316;2023-05-10T02:39:21;7.75;89.96
65637;DHT22;52327;42.622;23.316;2023-05-10T02:41:48;7.76;89.83
65637;DHT22;52327;42.622;23.316;2023-05-10T02:44:23;7.71;90.57
65637;DHT22;52327;42.622;23.316;2023-05-10T02:46:50;7.69;90.63
65637;DHT22;52327;42.622;23.316;2023-05-10T02:49:15;7.72;90.87
65637;DHT22;52327;42.622;23.316;2023-05-10T02:51:51;7.74;90.36
65637;DHT22;52327;42.622;23.316;2023-05-10T02:54:24;7.74;90.43
65637;DHT22;52327;42.622;23.316;2023-05-10T02:56:57;7.76;90.73
65637;DHT22;52327;42.622;23.316;2023-05-10T02:59:22;7.74;90.41
65637;DHT22;52327;42.622;23.316;2023-05-10T03:01:48;7.74;90.63
65637;DHT22;52327;42.622;23.316;2023-05-10T03:04:13;7.69;90.42
65637;DHT22;52327;42.622;23.316;2023-05-10T03:06:40;7.66;90.57
65637;DHT22;52327;42.622;23.316;2023-05-10T03:09:05;7.74;90.58
65637;DHT22;52327;42.622;23.316;2023-05-10T03:12:03;7.76;90.94
65637;DHT22;52327;42.622;23.316;2023-05-10T03:19:57;7.92;90.08
65637;DHT22;52327;42.622;23.316;2023-05-10T03:22:34;7.93;90.04
65637;DHT22;52327;42.622;23.316;2023-05-10T03:25:05;7.89;89.80
65637;DHT22;52327;42.622;23.316;2023-05-10T03:27:32;7.93;90.01
65637;DHT22;52327;42.622;23.316;2023-05-10T03:29:57;7.99;90.62
65637;DHT22;52327;42.622;23.316;2023-05-10T03:32:23;8.09;90.56
65637;DHT22;52327;42.622;23.316;2023-05-10T03:34:48;8.13;90.07
65637;DHT22;52327;42.622;23.316;2023-05-10T03:37:14;8.10;89.40
65637;DHT22;52327;42.622;23.316;2023-05-10T03:39:39;8.06;89.53
65637;DHT22;52327;42.622;23.316;2023-05-10T03:42:05;8.10;88.39
65637;DHT22;52327;42.622;23.316;2023-05-10T03:44:30;8.07;88.61
65637;DHT22;52327;42.622;23.316;2023-05-10T03:46:58;8.03;88.56
65637;DHT22;52327;42.622;23.316;2023-05-10T03:49:23;7.95;89.09
65637;DHT22;52327;42.622;23.316;2023-05-10T03:51:49;7.96;88.50
65637;DHT22;52327;42.622;23.316;2023-05-10T03:54:14;7.90;88.43
65637;DHT22;52327;42.622;23.316;2023-05-10T03:56:40;7.85;88.10
65637;DHT22;52327;42.622;23.316;2023-05-10T03:59:05;7.78;88.64
65637;DHT22;52327;42.622;23.316;2023-05-10T04:01:33;7.62;89.20
65637;DHT22;52327;42.622;23.316;2023-05-10T04:03:59;7.64;88.81
65637;DHT22;52327;42.622;23.316;2023-05-10T04:06:24;7.55;87.24
65637;DHT22;52327;42.622;23.316;2023-05-10T04:08:49;7.56;88.91
65637;DHT22;52327;42.622;23.316;2023-05-10T04:11:15;7.50;87.94
65637;DHT22;52327;42.622;23.316;2023-05-10T04:13:40;7.47;87.68
65637;DHT22;52327;42.622;23.316;2023-05-10T04:16:06;7.44;89.26
65637;DHT22;52327;42.622;23.316;2023-05-10T04:18:31;7.51;88.75
65637;DHT22;52327;42.622;23.316;2023-05-10T04:20:57;7.56;88.39
65637;DHT22;52327;42.622;23.316;2023-05-10T04:23:23;7.65;88.73
65637;DHT22;52327;42.622;23.316;2023-05-10T04:26:01;7.71;88.34
65637;DHT22;52327;42.622;23.316;2023-05-10T04:28:26;7.78;87.98
65637;DHT22;52327;42.622;23.316;2023-05-10T04:31:02;7.75;88.65
65637;DHT22;52327;42.622;23.316;2023-05-10T04:33:55;7.75;87.48
65637;DHT22;52327;42.622;23.316;2023-05-10T04:36:23;7.64;89.08
65637;DHT22;52327;42.622;23.316;2023-05-10T04:38:54;7.69;87.03
65637;DHT22;52327;42.622;23.316;2023-05-10T04:41:23;7.68;88.46
65637;DHT22;52327;42.622;23.316;2023-05-10T04:43:50;7.71;88.55
65637;DHT22;52327;42.622;23.316;2023-05-10T04:46:15;7.76;88.62
65637;DHT22;52327;42.622;23.316;2023-05-10T04:48:41;7.85;88.61
65637;DHT22;52327;42.622;23.316;2023-05-10T04:51:11;7.93;88.05
65637;DHT22;52327;42.622;23.316;2023-05-10T04:53:37;8.02;88.98
65637;DHT22;52327;42.622;23.316;2023-05-10T04:56:03;8.13;88.87
65637;DHT22;52327;42.622;23.316;2023-05-10T04:58:28;8.23;87.73
65637;DHT22;52327;42.622;23.316;2023-05-10T05:00:53;8.23;88.18
65637;DHT22;52327;42.622;23.316;2023-05-10T05:03:19;8.25;88.28
65637;DHT22;52327;42.622;23.316;2023-05-10T05:05:44;8.33;87.95
65637;DHT22;52327;42.622;23.316;2023-05-10T05:08:10;8.32;87.89
65637;DHT22;52327;42.622;23.316;2023-05-10T05:10:35;8.33;87.62
65637;DHT22;52327;42.622;23.316;2023-05-10T05:13:00;8.38;85.49
65637;DHT22;52327;42.622;23.316;2023-05-10T05:15:26;8.36;87.14
65637;DHT22;52327;42.622;23.316;2023-05-10T05:17:51;8.32;86.86
65637;DHT22;52327;42.622;23.316;2023-05-10T05:20:17;8.26;87.03
65637;DHT22;52327;42.622;23.316;2023-05-10T05:22:44;8.29;87.61
65637;DHT22;52327;42.622;23.316;2023-05-10T05:25:09;8.26;87.77
65637;DHT22;52327;42.622;23.316;2023-05-10T05:27:35;8.32;86.13
65637;DHT22;52327;42.622;23.316;2023-05-10T05:30:01;8.41;86.04
65637;DHT22;52327;42.622;23.316;2023-05-10T05:32:27;8.47;86.59
65637;DHT22;52327;42.622;23.316;2023-05-10T05:34:52;8.38;87.24
65637;DHT22;52327;42.622;23.316;2023-05-10T05:37:19;8.41;85.76
65637;DHT22;52327;42.622;23.316;2023-05-10T05:39:46;8.47;86.92
65637;DHT22;52327;42.622;23.316;2023-05-10T05:42:12;8.47;86.27
65637;DHT22;52327;42.622;23.316;2023-05-10T05:44:38;8.50;87.13
65637;DHT22;52327;42.622;23.316;2023-05-10T05:47:04;8.48;87.08
65637;DHT22;52327;42.622;23.316;2023-05-10T05:49:30;8.57;86.50
65637;DHT22;52327;42.622;23.316;2023-05-10T05:52:02;8.60;86.71
65637;DHT22;52327;42.622;23.316;2023-05-10T05:54:28;8.68;87.42
65637;DHT22;52327;42.622;23.316;2023-05-10T05:56:57;8.88;86.87
65637;DHT22;52327;42.622;23.316;2023-05-10T05:59:22;8.92;86.29
65637;DHT22;52327;42.622;23.316;2023-05-10T06:01:48;8.93;86.13
65637;DHT22;52327;42.622;23.316;2023-05-10T06:04:14;8.93;83.45
65637;DHT22;52327;42.622;23.316;2023-05-10T06:06:40;8.92;84.75
65637;DHT22;52327;42.622;23.316;2023-05-10T06:09:05;9.07;84.60
65637;DHT22;52327;42.622;23.316;2023-05-10T06:11:30;9.08;84.48
65637;DHT22;52327;42.622;23.316;2023-05-10T06:13:58;9.12;83.69
65637;DHT22;52327;42.622;23.316;2023-05-10T06:16:23;9.16;84.72
65637;DHT22;52327;42.622;23.316;2023-05-10T06:18:49;9.30;82.97
65637;DHT22;52327;42.622;23.316;2023-05-10T06:21:14;9.33;83.65
65637;DHT22;52327;42.622;23.316;2023-05-10T06:23:41;9.40;82.03
65637;DHT22;52327;42.622;23.316;2023-05-10T06:26:06;9.46;84.65
65637;DHT22;52327;42.622;23.316;2023-05-10T06:28:32;9.59;80.60
65637;DHT22;52327;42.622;23.316;2023-05-10T06:30:58;9.61;79.66
65637;DHT22;52327;42.622;23.316;2023-05-10T06:33:24;9.66;82.77
65637;DHT22;52327;42.622;23.316;2023-05-10T06:35:49;9.66;80.89
65637;DHT22;52327;42.622;23.316;2023-05-10T06:38:15;9.86;83.47
65637;DHT22;52327;42.622;23.316;2023-05-10T06:40:43;10.04;83.04
65637;DHT22;52327;42.622;23.316;2023-05-10T06:43:09;10.14;82.52
65637;DHT22;52327;42.622;23.316;2023-05-10T06:45:35;10.21;81.42
65637;DHT22;52327;42.622;23.316;2023-05-10T06:48:01;10.31;79.96
65637;DHT22;52327;42.622;23.316;2023-05-10T06:50:26;10.40;81.63
65637;DHT22;52327;42.622;23.316;2023-05-10T06:52:51;10.27;76.62
65637;DHT22;52327;42.622;23.316;2023-05-10T06:55:17;10.34;80.60
65637;DHT22;52327;42.622;23.316;2023-05-10T06:57:42;10.44;79.10
65637;DHT22;52327;42.622;23.316;2023-05-10T07:00:08;10.44;79.09
65637;DHT22;52327;42.622;23.316;2023-05-10T07:02:35;10.45;79.42
65637;DHT22;52327;42.622;23.316;2023-05-10T07:05:00;10.44;77.76
65637;DHT22;52327;42.622;23.316;2023-05-10T07:07:26;10.24;78.62
65637;DHT22;52327;42.622;23.316;2023-05-10T07:09:51;10.04;78.25
65637;DHT22;52327;42.622;23.316;2023-05-10T07:12:17;10.05;80.15
65637;DHT22;52327;42.622;23.316;2023-05-10T07:14:42;10.08;80.36
65637;DHT22;52327;42.622;23.316;2023-05-10T07:17:08;10.20;80.23
65637;DHT22;52327;42.622;23.316;2023-05-10T07:19:33;10.27;80.00
65637;DHT22;52327;42.622;23.316;2023-05-10T07:21:59;10.40;76.67
65637;DHT22;52327;42.622;23.316;2023-05-10T07:24:24;10.38;79.16
65637;DHT22;52327;42.622;23.316;2023-05-10T07:26:50;10.32;78.65
65637;DHT22;52327;42.622;23.316;2023-05-10T07:29:15;10.37;74.57
65637;DHT22;52327;42.622;23.316;2023-05-10T07:31:41;10.35;74.56
65637;DHT22;52327;42.622;23.316;2023-05-10T07:34:08;10.30;75.76
65637;DHT22;52327;42.622;23.316;2023-05-10T07:36:34;10.10;77.79
65637;DHT22;52327;42.622;23.316;2023-05-10T07:38:59;10.12;78.69
65637;DHT22;52327;42.622;23.316;2023-05-10T07:41:25;10.11;78.66
65637;DHT22;52327;42.622;23.316;2023-05-10T07:43:50;10.24;77.47
65637;DHT22;52327;42.622;23.316;2023-05-10T07:46:15;10.32;77.79
65637;DHT22;52327;42.622;23.316;2023-05-10T07:48:43;10.30;77.45
65637;DHT22;52327;42.622;23.316;2023-05-10T07:51:09;10.49;79.06
65637;DHT22;52327;42.622;23.316;2023-05-10T07:53:35;10.46;77.96
65637;DHT22;52327;42.622;23.316;2023-05-10T07:56:28;10.52;74.51
65637;DHT22;52327;42.622;23.316;2023-05-10T07:59:02;10.51;78.70
65637;DHT22;52327;42.622;23.316;2023-05-10T08:01:33;10.61;79.36
65637;DHT22;52327;42.622;23.316;2023-05-10T08:03:59;10.66;77.45
65637;DHT22;52327;42.622;23.316;2023-05-10T08:06:25;10.73;75.72
65637;DHT22;52327;42.622;23.316;2023-05-10T08:08:52;10.77;78.73
65637;DHT22;52327;42.622;23.316;2023-05-10T08:11:21;10.76;75.63
65637;DHT22;52327;42.622;23.316;2023-05-10T08:13:48;10.75;75.53
65637;DHT22;52327;42.622;23.316;2023-05-10T08:16:13;10.62;76.17
65637;DHT22;52327;42.622;23.316;2023-05-10T08:18:39;10.65;75.79
65637;DHT22;52327;42.622;23.316;2023-05-10T08:21:05;10.72;73.81
65637;DHT22;52327;42.622;23.316;2023-05-10T08:23:31;10.73;76.32
65637;DHT22;52327;42.622;23.316;2023-05-10T08:25:56;10.59;74.38
65637;DHT22;52327;42.622;23.316;2023-05-10T08:28:22;10.76;75.36
65637;DHT22;52327;42.622;23.316;2023-05-10T08:30:47;10.79;75.60
65637;DHT22;52327;42.622;23.316;2023-05-10T08:33:13;10.79;76.85
65637;DHT22;52327;42.622;23.316;2023-05-10T08:35:38;10.79;74.98
65637;DHT22;52327;42.622;23.316;2023-05-10T08:38:03;10.76;72.89
65637;DHT22;52327;42.622;23.316;2023-05-10T08:40:29;10.55;74.67
65637;DHT22;52327;42.622;23.316;2023-05-10T08:43:08;10.46;75.41
65637;DHT22;52327;42.622;23.316;2023-05-10T08:45:39;10.45;76.85
65637;DHT22;52327;42.622;23.316;2023-05-10T08:48:09;10.53;75.59
65637;DHT22;52327;42.622;23.316;2023-05-10T08:50:39;10.46;75.95
65637;DHT22;52327;42.622;23.316;2023-05-10T08:53:06;10.49;76.02
65637;DHT22;52327;42.622;23.316;2023-05-10T08:55:32;10.46;76.51
65637;DHT22;52327;42.622;23.316;2023-05-10T08:57:59;10.46;79.58
65637;DHT22;52327;42.622;23.316;2023-05-10T09:00:28;10.61;78.74
65637;DHT22;52327;42.622;23.316;2023-05-10T09:02:53;10.71;77.37
65637;DHT22;52327;42.622;23.316;2023-05-10T09:05:19;10.82;77.84
65637;DHT22;52327;42.622;23.316;2023-05-10T09:07:50;10.95;79.15
65637;DHT22;52327;42.622;23.316;2023-05-10T09:10:16;11.16;77.64
65637;DHT22;52327;42.622;23.316;2023-05-10T09:12:43;11.10;76.57
65637;DHT22;52327;42.622;23.316;2023-05-10T09:15:10;11.20;76.73
65637;DHT22;52327;42.622;23.316;2023-05-10T09:17:40;11.24;77.95
65637;DHT22;52327;42.622;23.316;2023-05-10T09:20:12;11.28;75.40
65637;DHT22;52327;42.622;23.316;2023-05-10T09:22:38;11.38;74.74
65637;DHT22;52327;42.622;23.316;2023-05-10T09:25:29;11.55;76.75
65637;DHT22;52327;42.622;23.316;2023-05-10T09:28:12;11.64;74.56
65637;DHT22;52327;42.622;23.316;2023-05-10T09:30:37;11.79;74.79
65637;DHT22;52327;42.622;23.316;2023-05-10T09:33:12;12.09;74.21
65637;DHT22;52327;42.622;23.316;2023-05-10T09:36:23;12.19;73.96
65637;DHT22;52327;42.622;23.316;2023-05-10T09:38:52;12.24;71.88
65637;DHT22;52327;42.622;23.316;2023-05-10T09:41:42;12.11;73.39
65637;DHT22;52327;42.622;23.316;2023-05-10T09:44:11;12.01;73.94
65637;DHT22;52327;42.622;23.316;2023-05-10T09:46:51;11.92;73.76
65637;DHT22;52327;42.622;23.316;2023-05-10T09:49:26;11.75;73.15
65637;DHT22;52327;42.622;23.316;2023-05-10T09:55:43;11.81;75.63
65637;DHT22;52327;42.622;23.316;2023-05-10T09:58:25;11.98;74.52
65637;DHT22;52327;42.622;23.316;2023-05-10T10:01:14;12.12;73.07
65637;DHT22;52327;42.622;23.316;2023-05-10T10:07:40;12.30;72.37
65637;DHT22;52327;42.622;23.316;2023-05-10T10:10:18;12.36;72.15
65637;DHT22;52327;42.622;23.316;2023-05-10T10:12:50;12.45;68.94
65637;DHT22;52327;42.622;23.316;2023-05-10T10:15:23;12.45;68.75
65637;DHT22;52327;42.622;23.316;2023-05-10T10:17:52;12.47;71.62
65637;DHT22;52327;42.622;23.316;2023-05-10T10:20:37;12.46;71.89
65637;DHT22;52327;42.622;23.316;2023-05-10T10:23:08;12.52;70.19
65637;DHT22;52327;42.622;23.316;2023-05-10T10:25:39;12.57;69.96
65637;DHT22;52327;42.622;23.316;2023-05-10T10:34:06;12.25;71.27
65637;DHT22;52327;42.622;23.316;2023-05-10T10:36:45;12.28;69.86
65637;DHT22;52327;42.622;23.316;2023-05-10T10:39:11;12.15;72.46
65637;DHT22;52327;42.622;23.316;2023-05-10T10:41:39;12.26;74.32
65637;DHT22;52327;42.622;23.316;2023-05-10T10:49:31;12.36;72.30
65637;DHT22;52327;42.622;23.316;2023-05-10T10:52:21;12.43;69.12
65637;DHT22;52327;42.622;23.316;2023-05-10T10:55:16;12.29;69.02
65637;DHT22;52327;42.622;23.316;2023-05-10T10:57:55;12.28;73.14
65637;DHT22;52327;42.622;23.316;2023-05-10T11:00:36;12.15;72.77
65637;DHT22;52327;42.622;23.316;2023-05-10T11:03:11;12.24;71.46
65637;DHT22;52327;42.622;23.316;2023-05-10T11:05:45;12.22;69.86
65637;DHT22;52327;42.622;23.316;2023-05-10T11:13:45;11.96;72.78
65637;DHT22;52327;42.622;23.316;2023-05-10T11:19:57;11.77;70.17
65637;DHT22;52327;42.622;23.316;2023-05-10T11:23:14;11.77;72.33
65637;DHT22;52327;42.622;23.316;2023-05-10T11:26:00;11.68;73.21
65637;DHT22;52327;42.622;23.316;2023-05-10T11:29:40;11.67;75.21
65637;DHT22;52327;42.622;23.316;2023-05-10T11:35:29;11.85;72.16
65637;DHT22;52327;42.622;23.316;2023-05-10T11:37:54;11.92;73.56
65637;DHT22;52327;42.622;23.316;2023-05-10T11:40:25;12.02;73.87
65637;DHT22;52327;42.622;23.316;2023-05-10T11:42:55;12.02;74.63
65637;DHT22;52327;42.622;23.316;2023-05-10T11:45:23;11.98;75.15
65637;DHT22;52327;42.622;23.316;2023-05-10T11:47:49;11.84;74.49
65637;DHT22;52327;42.622;23.316;2023-05-10T11:50:17;11.84;73.97
65637;DHT22;52327;42.622;23.316;2023-05-10T11:52:43;11.94;71.81
65637;DHT22;52327;42.622;23.316;2023-05-10T11:55:15;11.92;73.59
65637;DHT22;52327;42.622;23.316;2023-05-10T11:57:40;11.96;71.92
65637;DHT22;52327;42.622;23.316;2023-05-10T12:00:07;12.06;73.97
65637;DHT22;52327;42.622;23.316;2023-05-10T12:02:33;12.19;73.63
65637;DHT22;52327;42.622;23.316;2023-05-10T12:05:02;12.33;70.82
65637;DHT22;52327;42.622;23.316;2023-05-10T12:07:28;12.33;74.65
65637;DHT22;52327;42.622;23.316;2023-05-10T12:12:43;12.43;72.86
65637;DHT22;52327;42.622;23.316;2023-05-10T12:15:18;12.52;71.71
65637;DHT22;52327;42.622;23.316;2023-05-10T12:17:45;12.64;70.06
65637;DHT22;52327;42.622;23.316;2023-05-10T12:20:15;12.60;68.91
65637;DHT22;52327;42.622;23.316;2023-05-10T12:22:53;12.55;71.83
65637;DHT22;52327;42.622;23.316;2023-05-10T12:25:20;12.56;73.44
65637;DHT22;52327;42.622;23.316;2023-05-10T12:27:57;12.56;73.06
65637;DHT22;52327;42.622;23.316;2023-05-10T12:30:24;12.56;72.73
65637;DHT22;52327;42.622;23.316;2023-05-10T12:32:50;12.50;73.19
65637;DHT22;52327;42.622;23.316;2023-05-10T12:35:16;12.53;73.11
65637;DHT22;52327;42.622;23.316;2023-05-10T12:37:44;12.42;72.70
65637;DHT22;52327;42.622;23.316;2023-05-10T12:40:11;12.33;73.35
65637;DHT22;52327;42.622;23.316;2023-05-10T12:42:38;12.22;73.23
65637;DHT22;52327;42.622;23.316;2023-05-10T12:45:04;12.11;72.32
65637;DHT22;52327;42.622;23.316;2023-05-10T12:47:31;11.94;71.81
65637;DHT22;52327;42.622;23.316;2023-05-10T12:49:56;11.89;75.18
65637;DHT22;52327;42.622;23.316;2023-05-10T12:52:22;11.92;72.72
65637;DHT22;52327;42.622;23.316;2023-05-10T12:54:47;11.91;74.61
65637;DHT22;52327;42.622;23.316;2023-05-10T12:57:14;11.85;73.64
65637;DHT22;52327;42.622;23.316;2023-05-10T12:59:39;11.86;72.67
65637;DHT22;52327;42.622;23.316;2023-05-10T13:02:05;11.78;75.17
65637;DHT22;52327;42.622;23.316;2023-05-10T13:04:31;11.81;74.69
65637;DHT22;52327;42.622;23.316;2023-05-10T13:06:57;11.84;74.65
65637;DHT22;52327;42.622;23.316;2023-05-10T13:09:24;11.82;73.76
65637;DHT22;52327;42.622;23.316;2023-05-10T13:11:50;11.89;74.07
65637;DHT22;52327;42.622;23.316;2023-05-10T13:14:16;11.84;74.99
65637;DHT22;52327;42.622;23.316;2023-05-10T13:16:41;11.92;74.79
65637;DHT22;52327;42.622;23.316;2023-05-10T13:19:07;11.85;74.35
65637;DHT22;52327;42.622;23.316;2023-05-10T13:21:32;11.98;75.73
65637;DHT22;52327;42.622;23.316;2023-05-10T13:23:57;12.11;73.14
65637;DHT22;52327;42.622;23.316;2023-05-10T13:26:23;11.89;74.46
65637;DHT22;52327;42.622;23.316;2023-05-10T13:28:48;11.92;75.14
65637;DHT22;52327;42.622;23.316;2023-05-10T13:31:14;11.99;74.36
65637;DHT22;52327;42.622;23.316;2023-05-10T13:33:41;12.04;74.82
65637;DHT22;52327;42.622;23.316;2023-05-10T13:36:06;12.12;73.07
65637;DHT22;52327;42.622;23.316;2023-05-10T13:38:32;12.15;73.28
65637;DHT22;52327;42.622;23.316;2023-05-10T13:40:57;12.06;71.56
65637;DHT22;52327;42.622;23.316;2023-05-10T13:43:23;12.01;73.56
65637;DHT22;52327;42.622;23.316;2023-05-10T13:45:49;11.98;73.06
65637;DHT22;52327;42.622;23.316;2023-05-10T13:48:14;12.06;74.81
65637;DHT22;52327;42.622;23.316;2023-05-10T13:50:40;12.08;73.12
65637;DHT22;52327;42.622;23.316;2023-05-10T13:53:05;12.11;71.83
65637;DHT22;52327;42.622;23.316;2023-05-10T13:58:52;11.95;73.87
65637;DHT22;52327;42.622;23.316;2023-05-10T14:01:18;12.02;74.13
65637;DHT22;52327;42.622;23.316;2023-05-10T14:03:43;12.14;74.04
65637;DHT22;52327;42.622;23.316;2023-05-10T14:06:08;12.16;71.51
65637;DHT22;52327;42.622;23.316;2023-05-10T14:08:35;12.04;73.58
65637;DHT22;52327;42.622;23.316;2023-05-10T14:11:01;11.91;73.96
65637;DHT22;52327;42.622;23.316;2023-05-10T14:13:26;11.78;75.90
65637;DHT22;52327;42.622;23.316;2023-05-10T14:15:53;11.84;73.28
65637;DHT22;52327;42.622;23.316;2023-05-10T14:18:19;11.94;74.16
65637;DHT22;52327;42.622;23.316;2023-05-10T14:20:44;11.84;74.73
65637;DHT22;52327;42.622;23.316;2023-05-10T14:23:10;11.82;75.90
65637;DHT22;52327;42.622;23.316;2023-05-10T14:25:35;11.65;73.60
65637;DHT22;52327;42.622;23.316;2023-05-10T14:28:01;11.71;74.58
65637;DHT22;52327;42.622;23.316;2023-05-10T14:30:26;11.75;76.00
65637;DHT22;52327;42.622;23.316;2023-05-10T14:32:52;11.79;74.28
65637;DHT22;52327;42.622;23.316;2023-05-10T14:35:19;11.79;72.78
65637;DHT22;52327;42.622;23.316;2023-05-10T14:37:44;11.71;73.91
65637;DHT22;52327;42.622;23.316;2023-05-10T14:40:10;11.57;75.53
65637;DHT22;52327;42.622;23.316;2023-05-10T14:42:35;11.58;75.27
65637;DHT22;52327;42.622;23.316;2023-05-10T14:45:01;11.53;76.67
65637;DHT22;52327;42.622;23.316;2023-05-10T14:47:26;11.48;75.31
65637;DHT22;52327;42.622;23.316;2023-05-10T14:49:52;11.50;76.66
65637;DHT22;52327;42.622;23.316;2023-05-10T14:55:39;11.54;75.32
65637;DHT22;52327;42.622;23.316;2023-05-10T14:58:04;11.60;75.36
65637;DHT22;52327;42.622;23.316;2023-05-10T15:00:30;11.58;76.69
65637;DHT22;52327;42.622;23.316;2023-05-10T15:02:56;11.50;75.28
65637;DHT22;52327;42.622;23.316;2023-05-10T15:05:22;11.53;74.88
65637;DHT22;52327;42.622;23.316;2023-05-10T15:07:48;11.50;76.37
65637;DHT22;52327;42.622;23.316;2023-05-10T15:10:14;11.50;77.16
65637;DHT22;52327;42.622;23.316;2023-05-10T15:12:40;11.57;76.26
65637;DHT22;52327;42.622;23.316;2023-05-10T15:15:06;11.55;76.27
65637;DHT22;52327;42.622;23.316;2023-05-10T15:17:32;11.65;76.28
65637;DHT22;52327;42.622;23.316;2023-05-10T15:19:57;11.58;75.68
65637;DHT22;52327;42.622;23.316;2023-05-10T15:22:22;11.44;76.92
65637;DHT22;52327;42.622;23.316;2023-05-10T15:24:48;11.45;75.34
65637;DHT22;52327;42.622;23.316;2023-05-10T15:27:13;11.44;76.93
65637;DHT22;52327;42.622;23.316;2023-05-10T15:29:39;11.44;73.10
65637;DHT22;52327;42.622;23.316;2023-05-10T15:32:04;11.37;76.95
65637;DHT22;52327;42.622;23.316;2023-05-10T15:34:30;11.44;75.37
65637;DHT22;52327;42.622;23.316;2023-05-10T15:36:55;11.41;76.24
65637;DHT22;52327;42.622;23.316;2023-05-10T15:39:20;11.45;75.21
65637;DHT22;52327;42.622;23.316;2023-05-10T15:41:46;11.40;75.75
65637;DHT22;52327;42.622;23.316;2023-05-10T15:44:12;11.43;72.49
65637;DHT22;52327;42.622;23.316;2023-05-10T15:46:37;11.31;75.16
65637;DHT22;52327;42.622;23.316;2023-05-10T15:49:03;11.33;72.34
65637;DHT22;52327;42.622;23.316;2023-05-10T15:51:28;11.10;77.28
65637;DHT22;52327;42.622;23.316;2023-05-10T15:53:54;11.02;78.05
65637;DHT22;52327;42.622;23.316;2023-05-10T15:56:19;10.99;75.36
65637;DHT22;52327;42.622;23.316;2023-05-10T15:58:45;10.77;77.89
65637;DHT22;52327;42.622;23.316;2023-05-10T16:01:11;10.77;74.90
65637;DHT22;52327;42.622;23.316;2023-05-10T16:03:36;10.73;75.28
65637;DHT22;52327;42.622;23.316;2023-05-10T16:06:02;10.76;75.87
65637;DHT22;52327;42.622;23.316;2023-05-10T16:08:28;10.79;73.98
65637;DHT22;52327;42.622;23.316;2023-05-10T16:10:55;10.69;76.48
65637;DHT22;52327;42.622;23.316;2023-05-10T16:13:21;10.73;76.60
65637;DHT22;52327;42.622;23.316;2023-05-10T16:15:46;10.69;76.19
65637;DHT22;52327;42.622;23.316;2023-05-10T16:18:12;10.65;77.52
65637;DHT22;52327;42.622;23.316;2023-05-10T16:20:37;10.65;78.04
65637;DHT22;52327;42.622;23.316;2023-05-10T16:23:04;10.71;73.59
65637;DHT22;52327;42.622;23.316;2023-05-10T16:25:30;10.68;77.32
65637;DHT22;52327;42.622;23.316;2023-05-10T16:27:56;10.72;76.86
65637;DHT22;52327;42.622;23.316;2023-05-10T16:30:22;10.73;78.81
65637;DHT22;52327;42.622;23.316;2023-05-10T16:32:49;10.75;77.90
65637;DHT22;52327;42.622;23.316;2023-05-10T16:35:15;10.75;77.80
65637;DHT22;52327;42.622;23.316;2023-05-10T16:37:40;10.80;77.35
65637;DHT22;52327;42.622;23.316;2023-05-10T16:40:08;10.85;74.41